Terminal Aerodrome Forecast
Issued by NWS

Home | Current Version | Previous Version | Text Only | Print | Product List | Glossary On
Versions: 1 2 3 4 5 6 7 8 9 10 11 12 13 14 15 16 17 18 19
000
FTUS46 KMTR 221100
TAFSNS
TAF
KSNS 221133Z 2212/2312 11009KT P6SM BKN060
     FM221700 VRB03KT 6SM -SHRA BR BKN035 OVC045
     FM222000 17010KT 6SM -RA BR BKN030 OVC040
     FM222200 27009KT 6SM -RA BR BKN030 OVC040
     FM230100 25004KT P6SM SKC
     FM230800 00000KT P6SM SKC=

USA.gov is the U.S. government's official web portal to all federal, state and local government web resources and services.